sensor_id;sensor_type;location;lat;lon;timestamp;P1;durP1;ratioP1;P2;durP2;ratioP2
20997;SDS011;10657;51.276;6.390;2023-02-01T00:00:16;16.02;;;6.38;;
20997;SDS011;10657;51.276;6.390;2023-02-01T00:02:43;19.50;;;8.45;;
20997;SDS011;10657;51.276;6.390;2023-02-01T00:05:09;16.33;;;7.65;;
20997;SDS011;10657;51.276;6.390;2023-02-01T00:07:36;19.60;;;7.82;;
20997;SDS011;10657;51.276;6.390;2023-02-01T00:10:04;19.63;;;9.15;;
20997;SDS011;10657;51.276;6.390;2023-02-01T00:12:31;24.92;;;7.90;;
20997;SDS011;10657;51.276;6.390;2023-02-01T00:14:58;14.02;;;7.18;;
20997;SDS011;10657;51.276;6.390;2023-02-01T00:17:25;15.52;;;6.60;;
20997;SDS011;10657;51.276;6.390;2023-02-01T00:19:52;19.35;;;7.20;;
20997;SDS011;10657;51.276;6.390;2023-02-01T00:22:18;22.40;;;7.18;;
20997;SDS011;10657;51.276;6.390;2023-02-01T00:24:45;16.08;;;6.28;;
20997;SDS011;10657;51.276;6.390;2023-02-01T00:27:11;15.68;;;6.80;;
20997;SDS011;10657;51.276;6.390;2023-02-01T00:29:43;16.48;;;6.60;;
20997;SDS011;10657;51.276;6.390;2023-02-01T00:32:11;16.23;;;6.10;;
20997;SDS011;10657;51.276;6.390;2023-02-01T00:34:38;17.83;;;6.57;;
20997;SDS011;10657;51.276;6.390;2023-02-01T00:37:05;17.65;;;6.57;;
20997;SDS011;10657;51.276;6.390;2023-02-01T00:39:32;15.73;;;6.20;;
20997;SDS011;10657;51.276;6.390;2023-02-01T00:41:59;14.13;;;6.50;;
20997;SDS011;10657;51.276;6.390;2023-02-01T00:44:26;16.58;;;6.20;;
20997;SDS011;10657;51.276;6.390;2023-02-01T00:46:53;16.20;;;4.78;;
20997;SDS011;10657;51.276;6.390;2023-02-01T00:49:20;15.48;;;6.32;;
20997;SDS011;10657;51.276;6.390;2023-02-01T00:51:46;18.15;;;5.88;;
20997;SDS011;10657;51.276;6.390;2023-02-01T00:54:13;12.48;;;4.32;;
20997;SDS011;10657;51.276;6.390;2023-02-01T00:56:40;13.95;;;4.85;;
20997;SDS011;10657;51.276;6.390;2023-02-01T00:59:07;16.88;;;5.38;;
20997;SDS011;10657;51.276;6.390;2023-02-01T01:01:37;14.18;;;4.90;;
20997;SDS011;10657;51.276;6.390;2023-02-01T01:04:04;18.05;;;5.60;;
20997;SDS011;10657;51.276;6.390;2023-02-01T01:06:31;17.50;;;5.65;;
20997;SDS011;10657;51.276;6.390;2023-02-01T01:09:00;17.90;;;5.50;;
20997;SDS011;10657;51.276;6.390;2023-02-01T01:11:30;15.52;;;4.63;;
20997;SDS011;10657;51.276;6.390;2023-02-01T01:13:58;14.63;;;4.57;;
20997;SDS011;10657;51.276;6.390;2023-02-01T01:16:26;14.98;;;4.65;;
20997;SDS011;10657;51.276;6.390;2023-02-01T01:18:55;18.85;;;4.85;;
20997;SDS011;10657;51.276;6.390;2023-02-01T01:21:22;13.77;;;4.78;;
20997;SDS011;10657;51.276;6.390;2023-02-01T01:23:49;14.43;;;5.10;;
20997;SDS011;10657;51.276;6.390;2023-02-01T01:26:17;17.08;;;4.68;;
20997;SDS011;10657;51.276;6.390;2023-02-01T01:28:45;15.52;;;4.95;;
20997;SDS011;10657;51.276;6.390;2023-02-01T01:31:13;19.27;;;5.45;;
20997;SDS011;10657;51.276;6.390;2023-02-01T01:33:40;15.13;;;4.05;;
20997;SDS011;10657;51.276;6.390;2023-02-01T01:36:07;16.67;;;4.65;;
20997;SDS011;10657;51.276;6.390;2023-02-01T01:38:41;18.70;;;4.38;;
20997;SDS011;10657;51.276;6.390;2023-02-01T01:41:08;14.55;;;4.47;;
20997;SDS011;10657;51.276;6.390;2023-02-01T01:46:27;13.63;;;3.97;;
20997;SDS011;10657;51.276;6.390;2023-02-01T01:49:12;14.77;;;4.45;;
20997;SDS011;10657;51.276;6.390;2023-02-01T01:51:47;15.75;;;4.05;;
20997;SDS011;10657;51.276;6.390;2023-02-01T01:54:22;14.68;;;3.60;;
20997;SDS011;10657;51.276;6.390;2023-02-01T01:56:55;14.88;;;3.33;;
20997;SDS011;10657;51.276;6.390;2023-02-01T01:59:24;11.90;;;3.65;;
20997;SDS011;10657;51.276;6.390;2023-02-01T02:01:52;13.60;;;3.70;;
20997;SDS011;10657;51.276;6.390;2023-02-01T02:04:19;15.93;;;4.22;;
20997;SDS011;10657;51.276;6.390;2023-02-01T02:07:08;14.30;;;4.03;;
20997;SDS011;10657;51.276;6.390;2023-02-01T02:09:37;17.90;;;4.72;;
20997;SDS011;10657;51.276;6.390;2023-02-01T02:12:10;13.75;;;3.55;;
20997;SDS011;10657;51.276;6.390;2023-02-01T02:14:37;15.15;;;4.65;;
20997;SDS011;10657;51.276;6.390;2023-02-01T02:17:13;16.70;;;4.20;;
20997;SDS011;10657;51.276;6.390;2023-02-01T02:31:02;16.40;;;4.18;;
20997;SDS011;10657;51.276;6.390;2023-02-01T02:33:54;13.50;;;3.65;;
20997;SDS011;10657;51.276;6.390;2023-02-01T02:36:28;18.27;;;3.97;;
20997;SDS011;10657;51.276;6.390;2023-02-01T02:39:21;17.33;;;4.75;;
20997;SDS011;10657;51.276;6.390;2023-02-01T02:56:33;17.30;;;4.78;;
20997;SDS011;10657;51.276;6.390;2023-02-01T02:59:21;15.75;;;4.90;;
20997;SDS011;10657;51.276;6.390;2023-02-01T03:02:10;16.90;;;4.93;;
20997;SDS011;10657;51.276;6.390;2023-02-01T03:04:57;19.88;;;5.03;;
20997;SDS011;10657;51.276;6.390;2023-02-01T03:18:52;18.85;;;5.05;;
20997;SDS011;10657;51.276;6.390;2023-02-01T03:21:41;18.63;;;5.35;;
20997;SDS011;10657;51.276;6.390;2023-02-01T03:24:10;17.77;;;5.63;;
20997;SDS011;10657;51.276;6.390;2023-02-01T03:26:43;18.02;;;5.18;;
20997;SDS011;10657;51.276;6.390;2023-02-01T03:29:22;19.45;;;5.72;;
20997;SDS011;10657;51.276;6.390;2023-02-01T03:31:53;15.82;;;4.50;;
20997;SDS011;10657;51.276;6.390;2023-02-01T03:34:20;19.50;;;4.72;;
20997;SDS011;10657;51.276;6.390;2023-02-01T03:36:51;17.88;;;5.40;;
20997;SDS011;10657;51.276;6.390;2023-02-01T03:42:24;18.52;;;4.53;;
20997;SDS011;10657;51.276;6.390;2023-02-01T03:45:12;16.15;;;5.07;;
20997;SDS011;10657;51.276;6.390;2023-02-01T03:47:45;17.10;;;5.20;;
20997;SDS011;10657;51.276;6.390;2023-02-01T03:50:18;17.73;;;5.03;;
20997;SDS011;10657;51.276;6.390;2023-02-01T03:52:57;18.55;;;5.10;;
20997;SDS011;10657;51.276;6.390;2023-02-01T03:55:28;19.02;;;5.05;;
20997;SDS011;10657;51.276;6.390;2023-02-01T03:58:00;19.17;;;4.95;;
20997;SDS011;10657;51.276;6.390;2023-02-01T04:00:28;18.88;;;4.20;;
20997;SDS011;10657;51.276;6.390;2023-02-01T04:02:55;19.95;;;4.90;;
20997;SDS011;10657;51.276;6.390;2023-02-01T04:05:22;19.77;;;5.45;;
20997;SDS011;10657;51.276;6.390;2023-02-01T04:07:49;17.85;;;4.63;;
20997;SDS011;10657;51.276;6.390;2023-02-01T04:10:16;18.23;;;4.93;;
20997;SDS011;10657;51.276;6.390;2023-02-01T04:12:45;16.55;;;4.20;;
20997;SDS011;10657;51.276;6.390;2023-02-01T04:15:11;17.75;;;5.20;;
20997;SDS011;10657;51.276;6.390;2023-02-01T04:17:38;15.38;;;3.22;;
20997;SDS011;10657;51.276;6.390;2023-02-01T04:20:05;15.80;;;5.35;;
20997;SDS011;10657;51.276;6.390;2023-02-01T04:22:32;23.02;;;5.32;;
20997;SDS011;10657;51.276;6.390;2023-02-01T04:24:58;18.30;;;5.53;;
20997;SDS011;10657;51.276;6.390;2023-02-01T04:27:25;20.17;;;5.25;;
20997;SDS011;10657;51.276;6.390;2023-02-01T04:29:52;15.73;;;4.30;;
20997;SDS011;10657;51.276;6.390;2023-02-01T04:32:19;17.65;;;4.80;;
20997;SDS011;10657;51.276;6.390;2023-02-01T04:34:46;17.73;;;5.07;;
20997;SDS011;10657;51.276;6.390;2023-02-01T04:37:12;18.23;;;4.50;;
20997;SDS011;10657;51.276;6.390;2023-02-01T04:39:39;20.70;;;5.10;;
20997;SDS011;10657;51.276;6.390;2023-02-01T04:42:06;17.13;;;4.88;;
20997;SDS011;10657;51.276;6.390;2023-02-01T04:44:32;20.50;;;4.80;;
20997;SDS011;10657;51.276;6.390;2023-02-01T04:46:59;21.50;;;6.22;;
20997;SDS011;10657;51.276;6.390;2023-02-01T04:49:25;20.40;;;5.70;;
20997;SDS011;10657;51.276;6.390;2023-02-01T04:51:52;17.75;;;4.88;;
20997;SDS011;10657;51.276;6.390;2023-02-01T04:54:19;17.85;;;4.13;;
20997;SDS011;10657;51.276;6.390;2023-02-01T04:56:46;19.88;;;4.13;;
20997;SDS011;10657;51.276;6.390;2023-02-01T04:59:12;15.93;;;4.95;;
20997;SDS011;10657;51.276;6.390;2023-02-01T05:01:39;24.38;;;5.57;;
20997;SDS011;10657;51.276;6.390;2023-02-01T05:04:06;22.27;;;5.10;;
20997;SDS011;10657;51.276;6.390;2023-02-01T05:06:32;15.73;;;4.25;;
20997;SDS011;10657;51.276;6.390;2023-02-01T05:08:59;20.33;;;5.30;;
20997;SDS011;10657;51.276;6.390;2023-02-01T05:11:26;20.67;;;4.53;;
20997;SDS011;10657;51.276;6.390;2023-02-01T05:14:11;20.67;;;4.47;;
20997;SDS011;10657;51.276;6.390;2023-02-01T05:16:38;20.13;;;5.43;;
20997;SDS011;10657;51.276;6.390;2023-02-01T05:19:04;19.10;;;4.50;;
20997;SDS011;10657;51.276;6.390;2023-02-01T05:21:31;19.17;;;4.53;;
20997;SDS011;10657;51.276;6.390;2023-02-01T05:23:57;21.00;;;4.80;;
20997;SDS011;10657;51.276;6.390;2023-02-01T05:26:41;17.33;;;4.35;;
20997;SDS011;10657;51.276;6.390;2023-02-01T05:29:09;19.08;;;4.82;;
20997;SDS011;10657;51.276;6.390;2023-02-01T05:31:36;24.08;;;5.28;;
20997;SDS011;10657;51.276;6.390;2023-02-01T05:34:03;15.77;;;4.28;;
20997;SDS011;10657;51.276;6.390;2023-02-01T05:36:30;17.67;;;4.40;;
20997;SDS011;10657;51.276;6.390;2023-02-01T05:38:57;20.45;;;4.90;;
20997;SDS011;10657;51.276;6.390;2023-02-01T05:41:24;23.33;;;5.53;;
20997;SDS011;10657;51.276;6.390;2023-02-01T05:43:50;14.05;;;3.45;;
20997;SDS011;10657;51.276;6.390;2023-02-01T05:46:17;23.50;;;6.45;;
20997;SDS011;10657;51.276;6.390;2023-02-01T05:48:44;21.17;;;4.70;;
20997;SDS011;10657;51.276;6.390;2023-02-01T05:51:11;19.05;;;3.97;;
20997;SDS011;10657;51.276;6.390;2023-02-01T05:53:38;23.50;;;4.72;;
20997;SDS011;10657;51.276;6.390;2023-02-01T05:56:05;20.17;;;4.63;;
20997;SDS011;10657;51.276;6.390;2023-02-01T05:58:32;25.45;;;4.78;;
20997;SDS011;10657;51.276;6.390;2023-02-01T06:00:59;20.10;;;4.07;;
20997;SDS011;10657;51.276;6.390;2023-02-01T06:03:26;21.63;;;4.35;;
20997;SDS011;10657;51.276;6.390;2023-02-01T06:05:53;18.80;;;4.47;;
20997;SDS011;10657;51.276;6.390;2023-02-01T06:08:20;18.65;;;3.92;;
20997;SDS011;10657;51.276;6.390;2023-02-01T06:10:47;22.98;;;5.22;;
20997;SDS011;10657;51.276;6.390;2023-02-01T06:13:13;18.48;;;4.68;;
20997;SDS011;10657;51.276;6.390;2023-02-01T06:15:40;19.35;;;4.20;;
20997;SDS011;10657;51.276;6.390;2023-02-01T06:18:08;20.75;;;4.63;;
20997;SDS011;10657;51.276;6.390;2023-02-01T06:20:35;21.70;;;4.90;;
20997;SDS011;10657;51.276;6.390;2023-02-01T06:23:01;16.05;;;3.83;;
20997;SDS011;10657;51.276;6.390;2023-02-01T06:25:28;17.65;;;4.63;;
20997;SDS011;10657;51.276;6.390;2023-02-01T06:27:55;24.60;;;7.07;;
20997;SDS011;10657;51.276;6.390;2023-02-01T06:30:25;21.33;;;5.30;;
20997;SDS011;10657;51.276;6.390;2023-02-01T06:32:52;21.73;;;5.35;;
20997;SDS011;10657;51.276;6.390;2023-02-01T06:35:22;20.63;;;5.38;;
20997;SDS011;10657;51.276;6.390;2023-02-01T06:37:48;19.63;;;4.60;;
20997;SDS011;10657;51.276;6.390;2023-02-01T06:40:15;20.42;;;5.03;;
20997;SDS011;10657;51.276;6.390;2023-02-01T06:42:42;25.13;;;6.50;;
20997;SDS011;10657;51.276;6.390;2023-02-01T06:45:08;23.25;;;6.57;;
20997;SDS011;10657;51.276;6.390;2023-02-01T06:47:35;20.02;;;6.18;;
20997;SDS011;10657;51.276;6.390;2023-02-01T06:50:02;25.25;;;6.32;;
20997;SDS011;10657;51.276;6.390;2023-02-01T06:52:29;17.65;;;5.28;;
20997;SDS011;10657;51.276;6.390;2023-02-01T06:54:56;23.23;;;6.85;;
20997;SDS011;10657;51.276;6.390;2023-02-01T06:57:22;24.73;;;6.57;;
20997;SDS011;10657;51.276;6.390;2023-02-01T06:59:49;17.88;;;4.80;;
20997;SDS011;10657;51.276;6.390;2023-02-01T07:02:16;25.88;;;6.68;;
20997;SDS011;10657;51.276;6.390;2023-02-01T07:04:42;21.23;;;5.38;;
20997;SDS011;10657;51.276;6.390;2023-02-01T07:07:09;23.67;;;5.78;;
20997;SDS011;10657;51.276;6.390;2023-02-01T07:09:36;21.95;;;5.57;;
20997;SDS011;10657;51.276;6.390;2023-02-01T07:12:03;20.00;;;4.75;;
20997;SDS011;10657;51.276;6.390;2023-02-01T07:14:30;19.08;;;5.40;;
20997;SDS011;10657;51.276;6.390;2023-02-01T07:16:56;20.52;;;5.90;;
20997;SDS011;10657;51.276;6.390;2023-02-01T07:19:23;19.85;;;6.03;;
20997;SDS011;10657;51.276;6.390;2023-02-01T07:21:50;19.55;;;5.65;;
20997;SDS011;10657;51.276;6.390;2023-02-01T07:24:16;19.42;;;5.53;;
20997;SDS011;10657;51.276;6.390;2023-02-01T07:26:43;21.67;;;5.85;;
20997;SDS011;10657;51.276;6.390;2023-02-01T07:29:10;20.73;;;4.88;;
20997;SDS011;10657;51.276;6.390;2023-02-01T07:31:36;21.33;;;4.90;;
20997;SDS011;10657;51.276;6.390;2023-02-01T07:34:03;18.33;;;4.05;;
20997;SDS011;10657;51.276;6.390;2023-02-01T07:36:30;18.58;;;5.10;;
20997;SDS011;10657;51.276;6.390;2023-02-01T07:38:57;21.60;;;4.93;;
20997;SDS011;10657;51.276;6.390;2023-02-01T07:41:24;17.02;;;4.10;;
20997;SDS011;10657;51.276;6.390;2023-02-01T07:43:53;22.30;;;4.40;;
20997;SDS011;10657;51.276;6.390;2023-02-01T07:46:21;22.75;;;5.30;;
20997;SDS011;10657;51.276;6.390;2023-02-01T07:48:47;24.02;;;5.30;;
20997;SDS011;10657;51.276;6.390;2023-02-01T07:51:15;18.90;;;5.47;;
20997;SDS011;10657;51.276;6.390;2023-02-01T07:53:43;17.90;;;4.30;;
20997;SDS011;10657;51.276;6.390;2023-02-01T07:56:14;19.85;;;5.22;;
20997;SDS011;10657;51.276;6.390;2023-02-01T07:58:49;21.40;;;5.22;;
20997;SDS011;10657;51.276;6.390;2023-02-01T08:01:18;17.38;;;4.00;;
20997;SDS011;10657;51.276;6.390;2023-02-01T08:03:56;19.92;;;4.60;;
20997;SDS011;10657;51.276;6.390;2023-02-01T08:06:29;22.13;;;5.13;;
20997;SDS011;10657;51.276;6.390;2023-02-01T08:08:57;18.27;;;4.10;;
20997;SDS011;10657;51.276;6.390;2023-02-01T08:11:24;17.75;;;4.43;;
20997;SDS011;10657;51.276;6.390;2023-02-01T08:13:51;20.40;;;5.18;;
20997;SDS011;10657;51.276;6.390;2023-02-01T08:16:19;24.58;;;5.38;;
20997;SDS011;10657;51.276;6.390;2023-02-01T08:18:46;21.17;;;4.80;;
20997;SDS011;10657;51.276;6.390;2023-02-01T08:21:20;21.88;;;4.85;;
20997;SDS011;10657;51.276;6.390;2023-02-01T08:23:49;19.65;;;4.57;;
20997;SDS011;10657;51.276;6.390;2023-02-01T08:26:17;19.58;;;5.82;;
20997;SDS011;10657;51.276;6.390;2023-02-01T08:28:50;19.42;;;5.15;;
20997;SDS011;10657;51.276;6.390;2023-02-01T08:31:19;16.60;;;4.93;;
20997;SDS011;10657;51.276;6.390;2023-02-01T08:33:50;22.27;;;6.57;;
20997;SDS011;10657;51.276;6.390;2023-02-01T08:36:18;20.42;;;5.18;;
20997;SDS011;10657;51.276;6.390;2023-02-01T08:38:45;24.52;;;6.80;;
20997;SDS011;10657;51.276;6.390;2023-02-01T08:41:13;21.23;;;6.70;;
20997;SDS011;10657;51.276;6.390;2023-02-01T08:43:43;23.73;;;3.92;;
20997;SDS011;10657;51.276;6.390;2023-02-01T08:46:10;23.80;;;4.93;;
20997;SDS011;10657;51.276;6.390;2023-02-01T08:48:38;20.15;;;5.07;;
20997;SDS011;10657;51.276;6.390;2023-02-01T08:51:06;21.17;;;5.03;;
20997;SDS011;10657;51.276;6.390;2023-02-01T08:53:34;17.98;;;5.00;;
20997;SDS011;10657;51.276;6.390;2023-02-01T08:56:02;21.00;;;4.53;;
20997;SDS011;10657;51.276;6.390;2023-02-01T08:58:30;15.35;;;3.50;;
20997;SDS011;10657;51.276;6.390;2023-02-01T09:00:57;15.13;;;3.92;;
20997;SDS011;10657;51.276;6.390;2023-02-01T09:03:27;21.45;;;3.95;;
20997;SDS011;10657;51.276;6.390;2023-02-01T09:05:59;18.80;;;4.13;;
20997;SDS011;10657;51.276;6.390;2023-02-01T09:08:30;21.63;;;5.18;;
20997;SDS011;10657;51.276;6.390;2023-02-01T09:11:01;20.85;;;5.68;;
20997;SDS011;10657;51.276;6.390;2023-02-01T09:13:30;20.55;;;4.95;;
20997;SDS011;10657;51.276;6.390;2023-02-01T09:15:57;19.58;;;4.95;;
20997;SDS011;10657;51.276;6.390;2023-02-01T09:18:26;18.60;;;5.50;;
20997;SDS011;10657;51.276;6.390;2023-02-01T09:20:52;20.63;;;4.60;;
20997;SDS011;10657;51.276;6.390;2023-02-01T09:23:19;22.48;;;5.47;;
20997;SDS011;10657;51.276;6.390;2023-02-01T09:25:46;23.77;;;5.55;;
20997;SDS011;10657;51.276;6.390;2023-02-01T09:28:16;19.20;;;4.80;;
20997;SDS011;10657;51.276;6.390;2023-02-01T09:30:43;19.52;;;5.28;;
20997;SDS011;10657;51.276;6.390;2023-02-01T09:33:10;24.55;;;5.30;;
20997;SDS011;10657;51.276;6.390;2023-02-01T09:35:37;23.02;;;5.88;;
20997;SDS011;10657;51.276;6.390;2023-02-01T09:38:04;17.80;;;4.60;;
20997;SDS011;10657;51.276;6.390;2023-02-01T09:40:30;19.33;;;5.05;;
20997;SDS011;10657;51.276;6.390;2023-02-01T09:46:19;21.80;;;5.63;;
20997;SDS011;10657;51.276;6.390;2023-02-01T09:48:40;21.05;;;5.38;;
20997;SDS011;10657;51.276;6.390;2023-02-01T09:51:15;19.77;;;6.32;;
20997;SDS011;10657;51.276;6.390;2023-02-01T09:53:46;18.92;;;5.05;;
20997;SDS011;10657;51.276;6.390;2023-02-01T09:56:23;19.67;;;5.82;;
20997;SDS011;10657;51.276;6.390;2023-02-01T09:59:00;21.17;;;4.88;;
20997;SDS011;10657;51.276;6.390;2023-02-01T10:01:35;20.50;;;4.97;;
20997;SDS011;10657;51.276;6.390;2023-02-01T10:04:07;18.60;;;4.20;;
20997;SDS011;10657;51.276;6.390;2023-02-01T10:09:33;17.90;;;4.47;;
20997;SDS011;10657;51.276;6.390;2023-02-01T10:23:01;20.40;;;4.68;;
20997;SDS011;10657;51.276;6.390;2023-02-01T10:28:28;20.77;;;5.95;;
20997;SDS011;10657;51.276;6.390;2023-02-01T10:30:59;20.08;;;5.07;;
20997;SDS011;10657;51.276;6.390;2023-02-01T10:33:34;22.20;;;5.10;;
20997;SDS011;10657;51.276;6.390;2023-02-01T10:38:55;19.75;;;4.07;;
20997;SDS011;10657;51.276;6.390;2023-02-01T10:41:34;15.70;;;4.60;;
20997;SDS011;10657;51.276;6.390;2023-02-01T10:44:06;17.20;;;4.82;;
20997;SDS011;10657;51.276;6.390;2023-02-01T10:46:39;22.13;;;6.55;;
20997;SDS011;10657;51.276;6.390;2023-02-01T10:49:08;18.38;;;4.28;;
20997;SDS011;10657;51.276;6.390;2023-02-01T10:52:00;22.70;;;6.05;;
20997;SDS011;10657;51.276;6.390;2023-02-01T10:54:35;17.02;;;4.18;;
20997;SDS011;10657;51.276;6.390;2023-02-01T10:57:07;19.30;;;5.30;;
20997;SDS011;10657;51.276;6.390;2023-02-01T10:59:34;20.13;;;5.65;;
20997;SDS011;10657;51.276;6.390;2023-02-01T11:02:07;20.42;;;5.78;;
20997;SDS011;10657;51.276;6.390;2023-02-01T11:07:45;18.95;;;4.40;;
20997;SDS011;10657;51.276;6.390;2023-02-01T11:10:35;18.67;;;4.53;;
20997;SDS011;10657;51.276;6.390;2023-02-01T11:13:02;18.08;;;5.47;;
20997;SDS011;10657;51.276;6.390;2023-02-01T11:15:30;20.98;;;5.00;;
20997;SDS011;10657;51.276;6.390;2023-02-01T11:17:57;22.75;;;4.85;;
20997;SDS011;10657;51.276;6.390;2023-02-01T11:20:41;19.08;;;5.97;;
20997;SDS011;10657;51.276;6.390;2023-02-01T11:23:14;18.65;;;5.40;;
20997;SDS011;10657;51.276;6.390;2023-02-01T11:25:55;19.33;;;4.40;;
20997;SDS011;10657;51.276;6.390;2023-02-01T11:28:27;18.02;;;4.90;;
20997;SDS011;10657;51.276;6.390;2023-02-01T11:31:09;18.60;;;5.20;;
20997;SDS011;10657;51.276;6.390;2023-02-01T11:33:38;16.00;;;4.93;;
20997;SDS011;10657;51.276;6.390;2023-02-01T11:36:15;17.67;;;4.60;;
20997;SDS011;10657;51.276;6.390;2023-02-01T11:38:51;21.02;;;5.30;;
20997;SDS011;10657;51.276;6.390;2023-02-01T11:41:21;18.05;;;5.40;;
20997;SDS011;10657;51.276;6.390;2023-02-01T11:43:51;20.75;;;4.95;;
20997;SDS011;10657;51.276;6.390;2023-02-01T11:46:22;18.27;;;4.47;;
20997;SDS011;10657;51.276;6.390;2023-02-01T11:49:19;18.70;;;5.97;;
20997;SDS011;10657;51.276;6.390;2023-02-01T11:52:01;21.83;;;5.32;;
20997;SDS011;10657;51.276;6.390;2023-02-01T11:54:57;20.73;;;4.82;;
20997;SDS011;10657;51.276;6.390;2023-02-01T12:06:15;18.55;;;4.30;;
20997;SDS011;10657;51.276;6.390;2023-02-01T12:17:15;20.15;;;3.88;;
20997;SDS011;10657;51.276;6.390;2023-02-01T12:25:24;18.35;;;4.57;;
20997;SDS011;10657;51.276;6.390;2023-02-01T12:33:52;16.52;;;4.00;;
20997;SDS011;10657;51.276;6.390;2023-02-01T12:41:44;18.10;;;3.75;;
20997;SDS011;10657;51.276;6.390;2023-02-01T12:46:43;17.95;;;3.58;;
20997;SDS011;10657;51.276;6.390;2023-02-01T12:49:41;13.93;;;3.67;;
20997;SDS011;10657;51.276;6.390;2023-02-01T12:52:30;15.23;;;3.40;;
20997;SDS011;10657;51.276;6.390;2023-02-01T12:58:17;16.95;;;3.90;;
20997;SDS011;10657;51.276;6.390;2023-02-01T13:00:51;15.70;;;3.70;;
20997;SDS011;10657;51.276;6.390;2023-02-01T13:06:36;15.02;;;4.10;;
20997;SDS011;10657;51.276;6.390;2023-02-01T13:09:15;19.23;;;3.88;;
20997;SDS011;10657;51.276;6.390;2023-02-01T13:11:45;14.45;;;3.17;;
20997;SDS011;10657;51.276;6.390;2023-02-01T13:14:33;14.40;;;3.03;;
20997;SDS011;10657;51.276;6.390;2023-02-01T13:17:04;14.40;;;3.03;;
20997;SDS011;10657;51.276;6.390;2023-02-01T13:20:17;11.07;;;2.65;;
20997;SDS011;10657;51.276;6.390;2023-02-01T13:22:50;11.80;;;3.08;;
20997;SDS011;10657;51.276;6.390;2023-02-01T13:27:55;16.05;;;2.95;;
20997;SDS011;10657;51.276;6.390;2023-02-01T13:31:09;13.65;;;2.70;;
20997;SDS011;10657;51.276;6.390;2023-02-01T13:39:23;12.15;;;2.33;;
20997;SDS011;10657;51.276;6.390;2023-02-01T13:42:02;9.40;;;2.28;;
20997;SDS011;10657;51.276;6.390;2023-02-01T13:44:38;13.18;;;3.50;;
20997;SDS011;10657;51.276;6.390;2023-02-01T13:47:21;10.35;;;1.75;;
20997;SDS011;10657;51.276;6.390;2023-02-01T13:49:52;15.45;;;3.45;;
20997;SDS011;10657;51.276;6.390;2023-02-01T13:52:36;13.38;;;3.20;;
20997;SDS011;10657;51.276;6.390;2023-02-01T13:57:39;12.98;;;2.72;;
20997;SDS011;10657;51.276;6.390;2023-02-01T14:10:46;14.35;;;2.70;;
20997;SDS011;10657;51.276;6.390;2023-02-01T14:13:33;16.23;;;3.45;;
20997;SDS011;10657;51.276;6.390;2023-02-01T14:21:47;13.70;;;3.05;;
20997;SDS011;10657;51.276;6.390;2023-02-01T14:24:02;16.05;;;3.05;;
20997;SDS011;10657;51.276;6.390;2023-02-01T14:29:02;14.77;;;3.58;;
20997;SDS011;10657;51.276;6.390;2023-02-01T14:31:51;12.20;;;3.00;;
20997;SDS011;10657;51.276;6.390;2023-02-01T14:34:34;14.32;;;4.18;;
20997;SDS011;10657;51.276;6.390;2023-02-01T14:42:15;16.98;;;4.75;;
20997;SDS011;10657;51.276;6.390;2023-02-01T14:44:51;15.65;;;3.50;;
20997;SDS011;10657;51.276;6.390;2023-02-01T14:52:36;15.68;;;3.22;;
20997;SDS011;10657;51.276;6.390;2023-02-01T14:55:27;17.83;;;4.78;;
20997;SDS011;10657;51.276;6.390;2023-02-01T14:58:02;14.80;;;3.15;;
20997;SDS011;10657;51.276;6.390;2023-02-01T15:00:34;17.60;;;3.95;;
20997;SDS011;10657;51.276;6.390;2023-02-01T15:06:14;15.90;;;3.42;;
20997;SDS011;10657;51.276;6.390;2023-02-01T15:08:54;16.85;;;3.65;;
20997;SDS011;10657;51.276;6.390;2023-02-01T15:11:24;13.38;;;3.60;;
20997;SDS011;10657;51.276;6.390;2023-02-01T15:13:52;18.48;;;3.55;;
20997;SDS011;10657;51.276;6.390;2023-02-01T15:16:24;15.82;;;3.50;;
20997;SDS011;10657;51.276;6.390;2023-02-01T15:19:06;14.35;;;3.13;;
20997;SDS011;10657;51.276;6.390;2023-02-01T15:21:46;14.27;;;3.60;;
20997;SDS011;10657;51.276;6.390;2023-02-01T15:24:19;16.05;;;3.60;;
20997;SDS011;10657;51.276;6.390;2023-02-01T15:26:54;20.05;;;3.70;;
20997;SDS011;10657;51.276;6.390;2023-02-01T15:29:23;14.07;;;3.58;;
20997;SDS011;10657;51.276;6.390;2023-02-01T15:31:53;18.92;;;3.92;;
20997;SDS011;10657;51.276;6.390;2023-02-01T15:34:21;15.30;;;3.42;;
20997;SDS011;10657;51.276;6.390;2023-02-01T15:36:48;20.02;;;3.67;;
20997;SDS011;10657;51.276;6.390;2023-02-01T15:39:27;17.98;;;3.47;;
20997;SDS011;10657;51.276;6.390;2023-02-01T15:41:57;16.77;;;3.55;;
20997;SDS011;10657;51.276;6.390;2023-02-01T15:44:39;15.18;;;3.65;;
20997;SDS011;10657;51.276;6.390;2023-02-01T15:47:16;16.20;;;4.20;;
20997;SDS011;10657;51.276;6.390;2023-02-01T15:49:49;18.33;;;4.45;;
20997;SDS011;10657;51.276;6.390;2023-02-01T15:54:46;17.77;;;3.35;;
20997;SDS011;10657;51.276;6.390;2023-02-01T15:57:23;19.27;;;4.40;;
20997;SDS011;10657;51.276;6.390;2023-02-01T15:59:57;16.42;;;3.20;;
20997;SDS011;10657;51.276;6.390;2023-02-01T16:02:35;14.60;;;3.80;;
20997;SDS011;10657;51.276;6.390;2023-02-01T16:05:06;16.20;;;3.55;;
20997;SDS011;10657;51.276;6.390;2023-02-01T16:10:38;11.63;;;2.58;;
20997;SDS011;10657;51.276;6.390;2023-02-01T16:13:07;15.35;;;4.25;;
20997;SDS011;10657;51.276;6.390;2023-02-01T16:15:34;19.02;;;3.67;;
20997;SDS011;10657;51.276;6.390;2023-02-01T16:18:01;16.92;;;3.53;;
20997;SDS011;10657;51.276;6.390;2023-02-01T16:20:27;21.05;;;5.88;;
20997;SDS011;10657;51.276;6.390;2023-02-01T16:22:55;17.02;;;4.50;;
20997;SDS011;10657;51.276;6.390;2023-02-01T16:25:22;18.85;;;5.55;;
20997;SDS011;10657;51.276;6.390;2023-02-01T16:27:49;20.98;;;3.85;;
20997;SDS011;10657;51.276;6.390;2023-02-01T16:30:16;15.93;;;3.83;;
20997;SDS011;10657;51.276;6.390;2023-02-01T16:32:49;21.85;;;5.15;;
20997;SDS011;10657;51.276;6.390;2023-02-01T16:35:27;19.58;;;6.13;;
20997;SDS011;10657;51.276;6.390;2023-02-01T16:37:58;19.90;;;4.63;;
20997;SDS011;10657;51.276;6.390;2023-02-01T16:40:25;20.48;;;5.28;;
20997;SDS011;10657;51.276;6.390;2023-02-01T16:42:52;17.05;;;3.28;;
20997;SDS011;10657;51.276;6.390;2023-02-01T16:45:21;19.42;;;4.68;;
20997;SDS011;10657;51.276;6.390;2023-02-01T16:47:52;20.42;;;5.72;;
20997;SDS011;10657;51.276;6.390;2023-02-01T16:50:22;17.63;;;3.70;;
20997;SDS011;10657;51.276;6.390;2023-02-01T16:52:50;19.17;;;4.25;;
20997;SDS011;10657;51.276;6.390;2023-02-01T16:55:20;16.08;;;4.20;;
20997;SDS011;10657;51.276;6.390;2023-02-01T16:57:48;17.10;;;4.63;;
20997;SDS011;10657;51.276;6.390;2023-02-01T17:00:15;18.40;;;5.05;;
20997;SDS011;10657;51.276;6.390;2023-02-01T17:02:50;15.48;;;4.35;;
20997;SDS011;10657;51.276;6.390;2023-02-01T17:05:17;17.02;;;3.90;;
20997;SDS011;10657;51.276;6.390;2023-02-01T17:07:44;18.05;;;3.85;;
20997;SDS011;10657;51.276;6.390;2023-02-01T17:10:18;22.80;;;4.00;;
20997;SDS011;10657;51.276;6.390;2023-02-01T17:13:00;14.98;;;3.78;;
20997;SDS011;10657;51.276;6.390;2023-02-01T17:15:28;18.55;;;4.97;;
20997;SDS011;10657;51.276;6.390;2023-02-01T17:18:00;12.98;;;2.95;;
20997;SDS011;10657;51.276;6.390;2023-02-01T17:20:28;20.15;;;5.22;;
20997;SDS011;10657;51.276;6.390;2023-02-01T17:22:57;18.30;;;4.50;;
20997;SDS011;10657;51.276;6.390;2023-02-01T17:25:24;16.80;;;4.03;;
20997;SDS011;10657;51.276;6.390;2023-02-01T17:27:53;14.93;;;3.30;;
20997;SDS011;10657;51.276;6.390;2023-02-01T17:30:20;17.10;;;3.47;;
20997;SDS011;10657;51.276;6.390;2023-02-01T17:32:47;18.35;;;3.15;;
20997;SDS011;10657;51.276;6.390;2023-02-01T17:35:21;16.52;;;3.38;;